SIN weather

Singapore Changi Airport
Singapore, South East, Singapore

Public forecast

Using degrees Celsius for public forecast. Weather courtesy of forecast.io.

METAR (pilot weather report)

Retrieved 2017/07/23 04:30 UTC (0 seconds ago):

WSSS 230430Z VRB05KT 9999 SCT018 FEW020TCU SCT350 31/25 Q1011 NOSIG

TAF (pilot weather forecast)

Forecast is more than 12 hours old.

Retrieved 2017/07/21 00:11 UTC (2 days ago):

TAF WSSS 212300Z 2200/2306 17009KT 9999 FEW018CB SCT020